This is the latest recevied weather packets stored in our database for station/object N5CNB. If no packets are shown the sender has not sent any weather packets the latest 10 day(s).
| Time | Temp. | Humidity | Pressure | Rain* | Wind** | Luminosity | Snow |
|---|---|---|---|---|---|---|---|
| 1778087715 | 26.67° C | 83% | 1011.4 hPa | 0 mm | - | - | - |
| 1778086821 | 26.67° C | 83% | 1011.6 hPa | 0 mm | - | - | - |
| 1778085904 | 26.67° C | 82% | 1011.7 hPa | 0 mm | - | - | - |
| 1778085012 | 26.67° C | 83% | 1011.7 hPa | 0 mm | - | - | - |
| 1778081405 | 25.56° C | 84% | 1010.7 hPa | 0 mm | - | - | - |
| 1778077826 | 25° C | 86% | 1010.3 hPa | 0 mm | - | - | - |
| 1778076906 | 24.44° C | 87% | 1009.9 hPa | 0 mm | - | - | - |
| 1778076013 | 24.44° C | 87% | 1009.8 hPa | 0 mm | - | - | - |
| 1778075115 | 24.44° C | 88% | 1009.8 hPa | 0 mm | - | - | - |
| 1778074218 | 23.89° C | 88% | 1009.9 hPa | 0 mm | - | - | - |
| 1778073323 | 23.89° C | 89% | 1009.9 hPa | 0 mm | - | - | - |
| 1778072407 | 23.89° C | 89% | 1009.9 hPa | 0 mm | - | - | - |
| 1778071512 | 23.33° C | 90% | 1009.9 hPa | 0 mm | - | - | - |
| 1778070618 | 23.33° C | 90% | 1009.9 hPa | 0 mm | - | - | - |
| 1778069719 | 23.33° C | 90% | 1009.7 hPa | 0 mm | - | - | - |
| 1778068823 | 23.33° C | 89% | 1009.5 hPa | 0 mm | - | - | - |
| 1778067912 | 23.33° C | 89% | 1009.4 hPa | 0 mm | - | - | - |
| 1778067017 | 23.33° C | 89% | 1009.2 hPa | 0 mm | - | - | - |
| 1778066117 | 23.33° C | 89% | 1009.2 hPa | 0 mm | - | - | - |
| 1778065226 | 23.33° C | 89% | 1009.1 hPa | 0 mm | - | - | - |
| 1778064325 | 23.33° C | 89% | 1008.8 hPa | 0 mm | - | - | - |
| 1778063414 | 23.89° C | 89% | 1008.5 hPa | 0 mm | - | - | - |
| 1778062519 | 23.89° C | 89% | 1008.3 hPa | 0 mm | - | - | - |
| 1778061618 | 23.89° C | 89% | 1008.3 hPa | 0 mm | - | - | - |
| 1778060707 | 23.89° C | 89% | 1008.4 hPa | 0 mm | - | - | - |
* Rain latest hour (hover to see other rain measurements)
** Current wind speed in m/s (hover to see current wind gust speed)